createdAt,value
2019-02-06T00:00:28.488Z,13.93
2019-02-06T00:05:29.865Z,15.20
2019-02-06T00:10:31.233Z,14.50
2019-02-06T00:15:32.611Z,13.00
2019-02-06T00:20:33.994Z,11.67
2019-02-06T00:25:35.320Z,12.20
2019-02-06T00:30:37.561Z,11.43
2019-02-06T00:35:38.961Z,12.53
2019-02-06T00:40:41.019Z,12.10
2019-02-06T00:45:42.356Z,12.17
2019-02-06T00:50:43.723Z,12.47
2019-02-06T00:55:45.160Z,12.97
2019-02-06T01:00:46.577Z,11.90
2019-02-06T01:05:48.687Z,10.80
2019-02-06T01:10:50.046Z,11.10
2019-02-06T01:15:51.437Z,10.43
2019-02-06T01:20:52.812Z,11.80
2019-02-06T01:25:54.206Z,11.43
2019-02-06T01:30:55.545Z,11.83
2019-02-06T01:35:57.024Z,12.70
2019-02-06T01:40:58.379Z,12.37
2019-02-06T01:45:59.751Z,13.20
2019-02-06T01:51:01.100Z,13.10
2019-02-06T01:56:02.431Z,13.87
2019-02-06T02:01:03.902Z,14.00
2019-02-06T02:06:05.321Z,12.93
2019-02-06T02:11:06.661Z,14.60
2019-02-06T02:16:08.017Z,11.27
2019-02-06T02:21:09.414Z,12.00
2019-02-06T02:26:11.560Z,12.53
2019-02-06T02:31:12.950Z,12.10
2019-02-06T02:36:16.474Z,11.03
2019-02-06T02:41:16.523Z,10.10
2019-02-06T02:46:17.939Z,10.87
2019-02-06T02:51:19.419Z,10.50
2019-02-06T02:56:20.797Z,11.33
2019-02-06T03:01:28.991Z,11.63
2019-02-06T03:06:30.527Z,10.73
2019-02-06T03:11:31.836Z,11.30
2019-02-06T03:16:41.111Z,12.17
2019-02-06T03:21:47.600Z,11.93
2019-02-06T03:26:48.925Z,11.07
2019-02-06T03:31:50.286Z,10.90
2019-02-06T03:36:51.665Z,10.83
2019-02-06T03:41:52.999Z,11.93
2019-02-06T03:46:54.397Z,11.53
2019-02-06T03:51:55.780Z,13.10
2019-02-06T03:56:57.130Z,11.50
2019-02-06T04:01:58.513Z,12.07
2019-02-06T04:07:01.071Z,12.30
2019-02-06T04:12:02.959Z,13.20
2019-02-06T04:17:08.469Z,12.00
2019-02-06T04:22:09.829Z,10.93
2019-02-06T04:27:11.228Z,11.93
2019-02-06T04:32:12.564Z,11.07
2019-02-06T04:37:14.014Z,11.23
2019-02-06T04:42:15.372Z,10.37
2019-02-06T04:47:17.487Z,10.73
2019-02-06T04:52:18.945Z,10.23
2019-02-06T04:57:20.387Z,11.10
2019-02-06T05:02:22.538Z,9.60
2019-02-06T05:07:24.699Z,10.37
2019-02-06T05:12:26.049Z,10.93
2019-02-06T05:17:27.593Z,11.23
2019-02-06T05:22:29.669Z,11.30
2019-02-06T05:27:31.828Z,10.60
2019-02-06T05:32:33.958Z,10.87
2019-02-06T05:37:35.330Z,10.40
2019-02-06T05:42:36.787Z,10.97
2019-02-06T05:47:38.325Z,12.20
2019-02-06T05:52:39.744Z,24.67
2019-02-06T05:57:41.106Z,10.63
2019-02-06T06:02:42.477Z,11.67
2019-02-06T06:07:45.501Z,11.13
2019-02-06T06:12:46.103Z,11.50
2019-02-06T06:17:47.478Z,10.93
2019-02-06T06:22:48.908Z,11.07
2019-02-06T06:27:50.255Z,10.23
2019-02-06T06:32:51.608Z,9.93
2019-02-06T06:37:59.799Z,9.13
2019-02-06T06:42:54.613Z,11.00
2019-02-06T06:47:55.965Z,9.97
2019-02-06T06:52:58.371Z,10.30
2019-02-06T06:57:59.840Z,10.57
2019-02-06T07:03:01.124Z,10.10
2019-02-06T07:08:09.595Z,10.07
2019-02-06T07:13:03.923Z,10.43
2019-02-06T07:18:05.251Z,10.70
2019-02-06T07:23:07.331Z,10.70
2019-02-06T07:28:09.408Z,10.77
2019-02-06T07:33:11.596Z,10.83
2019-02-06T07:38:23.579Z,10.07
2019-02-06T07:43:14.351Z,10.73
2019-02-06T07:48:18.935Z,10.73
2019-02-06T07:53:27.844Z,9.37
2019-02-06T07:58:29.163Z,10.00
2019-02-06T08:03:30.662Z,11.03
2019-02-06T08:08:36.161Z,10.23
2019-02-06T08:13:33.252Z,12.10
2019-02-06T08:18:34.582Z,11.23
2019-02-06T08:23:35.907Z,11.83
2019-02-06T08:28:37.231Z,11.33
2019-02-06T08:33:38.566Z,11.43
2019-02-06T08:38:47.421Z,10.83
2019-02-06T08:43:41.256Z,11.00
2019-02-06T08:48:42.572Z,10.33
2019-02-06T08:53:43.889Z,11.40
2019-02-06T08:58:45.235Z,11.07
2019-02-06T09:03:46.559Z,12.03
2019-02-06T09:08:58.979Z,11.57
2019-02-06T09:13:50.031Z,11.20
2019-02-06T09:18:52.110Z,11.93
2019-02-06T09:23:53.466Z,12.83
2019-02-06T09:28:54.813Z,11.17
2019-02-06T09:33:56.122Z,11.03
2019-02-06T09:38:57.394Z,12.37
2019-02-06T09:43:58.686Z,11.97
2019-02-06T09:49:00.037Z,11.93
2019-02-06T09:54:01.383Z,12.10
2019-02-06T09:59:02.744Z,12.57
2019-02-06T10:04:04.056Z,12.43
2019-02-06T10:09:05.400Z,12.50
2019-02-06T10:14:06.753Z,14.83
2019-02-06T10:19:08.086Z,13.77
2019-02-06T10:24:10.105Z,12.80
2019-02-06T10:29:11.387Z,14.80
2019-02-06T10:34:12.728Z,14.03
2019-02-06T10:39:14.136Z,14.73
2019-02-06T10:44:15.510Z,15.43
2019-02-06T10:49:16.872Z,16.13
2019-02-06T10:54:18.163Z,16.87
2019-02-06T10:59:19.517Z,15.93
2019-02-06T11:04:20.914Z,15.73
2019-02-06T11:09:22.218Z,15.57
2019-02-06T11:14:23.551Z,16.07
2019-02-06T11:19:24.906Z,15.60
2019-02-06T11:24:26.879Z,15.77
2019-02-06T11:29:27.561Z,15.37
2019-02-06T11:34:28.965Z,15.97
2019-02-06T11:39:30.268Z,16.17
2019-02-06T11:44:31.628Z,16.00
2019-02-06T11:49:32.920Z,14.83
2019-02-06T11:54:34.221Z,15.30
2019-02-06T11:59:35.560Z,16.20
2019-02-06T12:04:36.919Z,16.30
2019-02-06T12:09:38.989Z,15.93
2019-02-06T12:14:40.392Z,15.90
2019-02-06T12:19:41.803Z,16.70
2019-02-06T12:24:43.049Z,14.83
2019-02-06T12:29:44.393Z,17.63
2019-02-06T12:34:46.595Z,16.23
2019-02-06T12:39:47.969Z,16.80
2019-02-06T12:44:49.295Z,16.93
2019-02-06T12:49:50.953Z,16.47
2019-02-06T12:54:53.033Z,15.93
2019-02-06T12:59:54.349Z,15.47
2019-02-06T13:04:55.695Z,14.27
2019-02-06T13:09:57.013Z,14.67
2019-02-06T13:14:58.348Z,14.50
2019-02-06T13:19:59.660Z,14.33
2019-02-06T13:25:00.993Z,14.43
2019-02-06T13:30:02.321Z,14.23
2019-02-06T13:35:03.633Z,14.40
2019-02-06T13:40:06.674Z,16.13
2019-02-06T13:45:08.822Z,14.27
2019-02-06T13:50:21.293Z,15.00
2019-02-06T13:55:14.595Z,16.47
2019-02-06T14:00:26.936Z,15.00
2019-02-06T14:05:28.227Z,15.50
2019-02-06T14:10:29.568Z,14.77
2019-02-06T14:15:32.463Z,13.90
2019-02-06T14:20:33.812Z,15.70
2019-02-06T14:25:46.885Z,13.60
2019-02-06T14:37:03.363Z,18.98
2019-02-06T14:42:13.451Z,14.80
2019-02-06T14:47:36.571Z,14.23
2019-02-06T14:59:07.131Z,18.83
2019-02-06T15:10:14.617Z,20.23
2019-02-06T15:21:13.511Z,21.20
2019-02-06T15:26:21.857Z,16.63
2019-02-06T15:31:38.951Z,16.47
2019-02-06T15:42:43.308Z,21.62
2019-02-06T15:48:18.019Z,16.87
2019-02-06T15:53:23.624Z,16.10
2019-02-06T15:58:32.561Z,15.30
2019-02-06T16:09:21.988Z,18.95
2019-02-06T16:14:47.203Z,13.80
2019-02-06T16:20:15.533Z,15.60
2019-02-06T16:25:24.507Z,15.97
2019-02-06T16:30:40.705Z,14.83
2019-02-06T16:41:40.628Z,21.00
2019-02-06T16:52:45.085Z,21.12
2019-02-06T17:09:39.470Z,22.05
2019-02-06T17:14:44.740Z,18.20
2019-02-06T17:31:43.514Z,23.90
2019-02-06T17:36:47.955Z,19.07
2019-02-06T17:48:36.738Z,23.67
2019-02-06T17:53:50.217Z,18.27
2019-02-06T17:58:51.564Z,17.77
2019-02-06T18:03:55.503Z,16.10
2019-02-06T18:08:57.954Z,17.43
2019-02-06T18:14:00.538Z,17.27
2019-02-06T18:19:02.119Z,17.93
2019-02-06T18:24:05.513Z,16.97
2019-02-06T18:29:07.651Z,17.17
2019-02-06T18:34:09.036Z,17.27
2019-02-06T18:39:10.742Z,16.17
2019-02-06T18:44:12.355Z,17.10
2019-02-06T18:49:13.716Z,16.27
2019-02-06T18:54:15.082Z,16.37
2019-02-06T18:59:17.643Z,16.63
2019-02-06T19:04:19.044Z,15.33
2019-02-06T19:09:20.402Z,15.03
2019-02-06T19:14:22.084Z,15.50
2019-02-06T19:19:25.474Z,14.63
2019-02-06T19:24:24.736Z,14.40
2019-02-06T19:29:26.793Z,16.10
2019-02-06T19:34:28.125Z,14.07
2019-02-06T19:39:29.484Z,17.20
2019-02-06T19:44:30.925Z,15.07
2019-02-06T19:49:32.257Z,14.83
2019-02-06T19:54:33.618Z,14.67
2019-02-06T19:59:34.973Z,16.33
2019-02-06T20:04:36.283Z,14.80
2019-02-06T20:09:38.189Z,14.13
2019-02-06T20:14:43.261Z,15.83
2019-02-06T20:19:45.983Z,20.67
2019-02-06T20:24:48.489Z,15.17
2019-02-06T20:29:50.698Z,15.33
2019-02-06T20:34:56.613Z,15.93
2019-02-06T20:39:58.783Z,15.47
2019-02-06T20:45:01.240Z,17.83
2019-02-06T20:50:02.582Z,16.00
2019-02-06T20:55:04.671Z,15.87
2019-02-06T21:00:11.942Z,16.43
2019-02-06T21:05:13.456Z,15.97
2019-02-06T21:10:25.278Z,15.10
2019-02-06T21:15:26.658Z,16.73
2019-02-06T21:20:28.016Z,17.10
2019-02-06T21:25:29.449Z,15.83
2019-02-06T21:30:33.686Z,16.90
2019-02-06T21:35:35.756Z,16.80
2019-02-06T21:40:42.764Z,17.17
2019-02-06T21:45:47.933Z,17.53
2019-02-06T21:50:50.258Z,18.13
2019-02-06T22:01:07.013Z,16.73
2019-02-06T22:06:18.259Z,16.83
2019-02-06T22:11:22.973Z,16.63
2019-02-06T22:16:26.373Z,17.20
2019-02-06T22:21:36.434Z,17.90
2019-02-06T22:26:49.330Z,15.90
2019-02-06T22:31:55.423Z,15.50
2019-02-06T22:37:01.935Z,15.90
2019-02-06T22:42:18.897Z,15.77
2019-02-06T22:47:23.251Z,16.03
2019-02-06T22:52:28.511Z,14.40
2019-02-06T22:57:33.627Z,17.17
2019-02-06T23:02:35.624Z,16.17
2019-02-06T23:12:55.641Z,16.17
2019-02-06T23:18:03.108Z,16.53
2019-02-06T23:23:08.373Z,15.53
2019-02-06T23:28:09.675Z,17.23
2019-02-06T23:33:11.001Z,15.50
2019-02-06T23:38:12.340Z,15.77
2019-02-06T23:43:13.665Z,16.93
2019-02-06T23:48:15.067Z,17.20
2019-02-06T23:53:16.432Z,17.40
2019-02-06T23:58:17.993Z,15.27
